Ashwood, Texas
Current Conditions -  °F | °C
As of 4:53 PM on Tuesday 21 Oct 2014 (Local Time) from KLBX Reporting Station
Clear Clear  
Wind Chill: 78°   Ceiling: Unl
Heat Index: 79°   Visibility: 10mi
Dew Point: 50°   Wind: 10mph
Humidity: 37%   Direction: 90°E
Pressure: 29.98"   Gusts: NA
Location:  29.0235°N, 95.7113°W
Report Text: KLBX 212153Z AUTO 09009KT 10SM CLR 26/10 A2998 RMK AO2 SLP151 T02560100
Loading
Personal Weather Stations






























Interactive Weather Map
Tropical Storm Tracking
New forecast layout! Learn more

10-Day Weather Forecast

Advertisements
Track Severe Weather on mobile